Terminal Aerodrome Forecast
Issued by NWS Sterling, VA

Home | Current Version | Previous Version | Text Only | Print | Product List | Glossary On
Versions: 1 2 3 4 5 6 7 8 9 10 11 12 13 14 15 16 17 18 19 20 21 22 23 24
763
FTUS41 KLWX 061135
TAFBWI
TAF
KBWI 061135Z 0612/0718 02008KT 4SM RA BR OVC015
     FM062200 29005KT 5SM SHRA BR OVC015
     FM070300 VRB03KT 6SM BR OVC008
     FM071100 36004KT P6SM BKN015=

USA.gov is the U.S. government's official web portal to all federal, state and local government web resources and services.